Stone Creek, OH (43840)

7:17 PM EST on November 19, 2017 (GMT -0500)
Old Town Valley | | Change Station

Elev 666 ft 40.42 °N, 81.47 °W | Updated 10 minutes ago

Overcast
Overcast
34.0 °F
Feels Like 34 °F
N
2.7
Wind Variable Wind from WSW

Today
High -- | Low -- °F
--% Chance of Precip.
Yesterday
High -- | Low -- °F
Precip. -- in
Pressure 30.00 in
Visibility 10.0 miles
Clouds Few 3300 ft
Overcast 5500 ft
Windchill 34 °F
Dew Point 28 °F
Humidity 80%
Rainfall 0.03 in
Snow Depth Not available.
7:17 AM 5:05 PM
New Moon, 2% visible
METAR KPHD 192353Z AUTO 27009KT 10SM FEW033 OVC055 02/M03 A2998 RMK AO2 SNB20E40 SLP158 P0000 60003 T00221033 10044 20011 53023
Pressure 30.00 in
Visibility 10.0 miles
Clouds Few 3300 ft
Overcast 5500 ft
Windchill 34 °F
Dew Point 28 °F
Humidity 80%
Rainfall 0.03 in
Snow Depth Not available.
7:17 AM 5:05 PM
New Moon, 2% visible
METAR KPHD 192353Z AUTO 27009KT 10SM FEW033 OVC055 02/M03 A2998 RMK AO2 SNB20E40 SLP158 P0000 60003 T00221033 10044 20011 53023

Get Severe Weather Alerts

Thanks for signing up!

Be on the lookout for a verification email in your inbox.

You'll start receiving the daily forecast at 6 AM.

×

10-Day Weather Forecast

Almanac

Astronomy

Nov. 19, 2017 Rise Set
Actual Time
Civil Twilight
Nautical Twilight
Astronomical Twilight
Moon
Length of Visible Light
Length of Day
Tomorrow will be .
, % of the Moon is Illuminated

Today's Extremes

State Highs State Lows

Community

WunderPhotos

Category 6

Welcome to Category 6. This is the collective home for Weather Underground's featured writeups by Dr. Jeff Masters (right), Bob Henson (left), Chris Burt, and other regular contributors.

Nearby

Air Quality

  Air Quality AQ Index Pollutant
Not available.

Snow Depth

Station Depth Elevation

Earthquake Activity

City Distance Mag. Time & Date
Minimum magnitude displayed is 2.5.

Coastal Water Temperatures

Place Temperature

Stations

Nearby Weather Stations

Station Location Temp. Windchill Dew Point Humidity Wind Precip. Elev Updated Type
                   

Watches & Warnings

There are currently no watches in effect.